sensor_id;sensor_type;location;lat;lon;timestamp;pressure;altitude;pressure_sealevel;temperature;humidity
76378;BME280;65200;49.500;8.654;2023-04-02T00:01:15;99698.25;;;8.18;93.09
76378;BME280;65200;49.500;8.654;2023-04-02T00:04:04;99688.13;;;8.14;93.96
76378;BME280;65200;49.500;8.654;2023-04-02T00:06:34;99700.03;;;8.11;94.99
76378;BME280;65200;49.500;8.654;2023-04-02T00:09:19;99695.50;;;8.12;94.80
76378;BME280;65200;49.500;8.654;2023-04-02T00:11:48;99702.72;;;8.11;93.54
76378;BME280;65200;49.500;8.654;2023-04-02T00:14:23;99711.06;;;8.08;94.43
76378;BME280;65200;49.500;8.654;2023-04-02T00:16:52;99706.31;;;8.04;94.60
76378;BME280;65200;49.500;8.654;2023-04-02T00:19:24;99705.72;;;8.08;94.70
76378;BME280;65200;49.500;8.654;2023-04-02T00:21:56;99714.97;;;8.06;94.15
76378;BME280;65200;49.500;8.654;2023-04-02T00:24:23;99721.13;;;8.06;95.23
76378;BME280;65200;49.500;8.654;2023-04-02T00:26:50;99721.75;;;8.08;94.71
76378;BME280;65200;49.500;8.654;2023-04-02T00:29:18;99723.41;;;8.09;93.95
76378;BME280;65200;49.500;8.654;2023-04-02T00:31:48;99722.19;;;8.12;94.12
76378;BME280;65200;49.500;8.654;2023-04-02T00:34:19;99728.75;;;8.09;94.92
76378;BME280;65200;49.500;8.654;2023-04-02T00:36:47;99727.84;;;8.02;94.61
76378;BME280;65200;49.500;8.654;2023-04-02T00:39:18;99729.69;;;8.02;95.48
76378;BME280;65200;49.500;8.654;2023-04-02T00:41:45;99719.97;;;7.94;94.69
76378;BME280;65200;49.500;8.654;2023-04-02T00:44:12;99724.72;;;7.99;94.60
76378;BME280;65200;49.500;8.654;2023-04-02T00:46:41;99724.91;;;7.97;95.88
76378;BME280;65200;49.500;8.654;2023-04-02T00:49:18;99737.41;;;7.97;95.67
76378;BME280;65200;49.500;8.654;2023-04-02T00:51:49;99729.34;;;7.90;95.88
76378;BME280;65200;49.500;8.654;2023-04-02T00:54:19;99725.50;;;7.93;95.03
76378;BME280;65200;49.500;8.654;2023-04-02T00:56:49;99730.56;;;7.88;95.31
76378;BME280;65200;49.500;8.654;2023-04-02T00:59:21;99734.59;;;7.84;95.75
76378;BME280;65200;49.500;8.654;2023-04-02T01:01:51;99729.47;;;7.82;96.79
76378;BME280;65200;49.500;8.654;2023-04-02T01:04:31;99729.28;;;7.84;96.59
76378;BME280;65200;49.500;8.654;2023-04-02T01:07:00;99727.63;;;7.83;96.81
76378;BME280;65200;49.500;8.654;2023-04-02T01:09:40;99734.44;;;7.85;96.55
76378;BME280;65200;49.500;8.654;2023-04-02T01:12:22;99741.59;;;7.85;94.65
76378;BME280;65200;49.500;8.654;2023-04-02T01:14:58;99739.78;;;7.85;96.48
76378;BME280;65200;49.500;8.654;2023-04-02T01:17:37;99739.13;;;7.83;95.21
76378;BME280;65200;49.500;8.654;2023-04-02T01:20:33;99738.94;;;7.85;96.23
76378;BME280;65200;49.500;8.654;2023-04-02T01:23:07;99738.19;;;7.91;94.95
76378;BME280;65200;49.500;8.654;2023-04-02T01:25:41;99742.34;;;7.93;94.71
76378;BME280;65200;49.500;8.654;2023-04-02T01:28:15;99746.00;;;7.92;94.87
76378;BME280;65200;49.500;8.654;2023-04-02T01:30:48;99748.66;;;7.92;94.00
76378;BME280;65200;49.500;8.654;2023-04-02T01:33:16;99747.47;;;7.95;95.36
76378;BME280;65200;49.500;8.654;2023-04-02T01:35:45;99745.19;;;7.92;95.54
76378;BME280;65200;49.500;8.654;2023-04-02T01:38:18;99755.88;;;7.92;95.58
76378;BME280;65200;49.500;8.654;2023-04-02T01:40:52;99757.31;;;7.94;94.03
76378;BME280;65200;49.500;8.654;2023-04-02T01:43:25;99758.16;;;7.95;94.04
76378;BME280;65200;49.500;8.654;2023-04-02T01:45:57;99759.59;;;7.97;93.60
76378;BME280;65200;49.500;8.654;2023-04-02T01:48:27;99765.78;;;7.98;94.66
76378;BME280;65200;49.500;8.654;2023-04-02T01:50:55;99761.88;;;8.00;93.76
76378;BME280;65200;49.500;8.654;2023-04-02T01:53:24;99770.91;;;7.99;93.09
76378;BME280;65200;49.500;8.654;2023-04-02T01:55:55;99773.41;;;8.01;93.03
76378;BME280;65200;49.500;8.654;2023-04-02T01:58:25;99771.31;;;7.96;93.85
76378;BME280;65200;49.500;8.654;2023-04-02T02:00:58;99775.59;;;7.97;93.99
76378;BME280;65200;49.500;8.654;2023-04-02T02:03:28;99775.22;;;8.00;93.61
76378;BME280;65200;49.500;8.654;2023-04-02T02:05:56;99777.91;;;8.00;93.47
76378;BME280;65200;49.500;8.654;2023-04-02T02:08:32;99778.28;;;7.97;94.61
76378;BME280;65200;49.500;8.654;2023-04-02T02:11:00;99782.78;;;7.97;94.31
76378;BME280;65200;49.500;8.654;2023-04-02T02:13:28;99781.41;;;8.01;94.58
76378;BME280;65200;49.500;8.654;2023-04-02T02:15:58;99782.44;;;8.00;93.30
76378;BME280;65200;49.500;8.654;2023-04-02T02:18:26;99781.22;;;8.02;94.34
76378;BME280;65200;49.500;8.654;2023-04-02T02:20:55;99786.94;;;7.99;94.73
76378;BME280;65200;49.500;8.654;2023-04-02T02:23:22;99785.28;;;7.98;94.41
76378;BME280;65200;49.500;8.654;2023-04-02T02:25:49;99793.72;;;8.02;94.37
76378;BME280;65200;49.500;8.654;2023-04-02T02:28:17;99792.06;;;8.01;93.46
76378;BME280;65200;49.500;8.654;2023-04-02T02:30:49;99795.59;;;8.01;93.77
76378;BME280;65200;49.500;8.654;2023-04-02T02:33:21;99803.59;;;8.01;94.12
76378;BME280;65200;49.500;8.654;2023-04-02T02:35:52;99806.44;;;8.00;94.30
76378;BME280;65200;49.500;8.654;2023-04-02T02:38:46;99804.38;;;8.02;94.39
76378;BME280;65200;49.500;8.654;2023-04-02T02:41:19;99807.44;;;7.99;94.55
76378;BME280;65200;49.500;8.654;2023-04-02T02:43:55;99808.28;;;7.99;95.45
76378;BME280;65200;49.500;8.654;2023-04-02T02:46:23;99809.47;;;7.97;94.43
76378;BME280;65200;49.500;8.654;2023-04-02T02:48:54;99817.66;;;7.95;95.41
76378;BME280;65200;49.500;8.654;2023-04-02T02:51:25;99819.69;;;7.93;95.51
76378;BME280;65200;49.500;8.654;2023-04-02T02:53:56;99817.22;;;7.92;96.13
76378;BME280;65200;49.500;8.654;2023-04-02T02:56:24;99825.38;;;7.90;96.28
76378;BME280;65200;49.500;8.654;2023-04-02T02:58:52;99825.38;;;7.90;94.75
76378;BME280;65200;49.500;8.654;2023-04-02T03:01:20;99820.44;;;7.87;96.15
76378;BME280;65200;49.500;8.654;2023-04-02T03:03:46;99826.41;;;7.89;94.98
76378;BME280;65200;49.500;8.654;2023-04-02T03:06:16;99828.06;;;7.90;95.07
76378;BME280;65200;49.500;8.654;2023-04-02T03:08:49;99831.75;;;7.89;95.76
76378;BME280;65200;49.500;8.654;2023-04-02T03:11:22;99829.91;;;7.90;96.42
76378;BME280;65200;49.500;8.654;2023-04-02T03:13:56;99826.41;;;7.89;95.89
76378;BME280;65200;49.500;8.654;2023-04-02T03:16:28;99836.13;;;7.97;95.36
76378;BME280;65200;49.500;8.654;2023-04-02T03:19:01;99835.53;;;7.95;95.01
76378;BME280;65200;49.500;8.654;2023-04-02T03:21:35;99839.84;;;7.96;95.00
76378;BME280;65200;49.500;8.654;2023-04-02T03:24:10;99841.47;;;7.97;94.88
76378;BME280;65200;49.500;8.654;2023-04-02T03:26:40;99845.16;;;7.96;94.78
76378;BME280;65200;49.500;8.654;2023-04-02T03:29:15;99847.84;;;7.96;93.95
76378;BME280;65200;49.500;8.654;2023-04-02T03:31:43;99860.72;;;7.92;95.77
76378;BME280;65200;49.500;8.654;2023-04-02T03:34:15;99862.03;;;7.96;95.06
76378;BME280;65200;49.500;8.654;2023-04-02T03:36:50;99855.38;;;7.92;95.50
76378;BME280;65200;49.500;8.654;2023-04-02T03:39:25;99855.38;;;7.92;95.18
76378;BME280;65200;49.500;8.654;2023-04-02T03:41:57;99862.19;;;7.95;94.17
76378;BME280;65200;49.500;8.654;2023-04-02T03:44:29;99865.06;;;7.93;95.49
76378;BME280;65200;49.500;8.654;2023-04-02T03:47:00;99870.41;;;7.93;95.49
76378;BME280;65200;49.500;8.654;2023-04-02T03:49:33;99874.53;;;7.96;94.45
76378;BME280;65200;49.500;8.654;2023-04-02T03:52:05;99872.50;;;7.98;94.91
76378;BME280;65200;49.500;8.654;2023-04-02T03:54:34;99874.78;;;8.01;93.49
76378;BME280;65200;49.500;8.654;2023-04-02T03:57:01;99879.28;;;8.00;94.62
76378;BME280;65200;49.500;8.654;2023-04-02T03:59:35;99886.84;;;7.97;95.30
76378;BME280;65200;49.500;8.654;2023-04-02T04:02:12;99883.44;;;8.03;93.68
76378;BME280;65200;49.500;8.654;2023-04-02T04:04:42;99886.69;;;7.98;93.58
76378;BME280;65200;49.500;8.654;2023-04-02T04:07:19;99898.63;;;8.02;93.96
76378;BME280;65200;49.500;8.654;2023-04-02T04:09:49;99895.69;;;7.97;95.03
76378;BME280;65200;49.500;8.654;2023-04-02T04:12:23;99906.34;;;7.97;95.07
76378;BME280;65200;49.500;8.654;2023-04-02T04:14:53;99899.28;;;8.04;94.14
76378;BME280;65200;49.500;8.654;2023-04-02T04:17:25;99907.94;;;8.06;93.79
76378;BME280;65200;49.500;8.654;2023-04-02T04:19:58;99901.94;;;8.04;93.64
76378;BME280;65200;49.500;8.654;2023-04-02T04:22:28;99917.59;;;8.07;94.44
76378;BME280;65200;49.500;8.654;2023-04-02T04:24:56;99917.94;;;8.04;92.92
76378;BME280;65200;49.500;8.654;2023-04-02T04:27:25;99921.72;;;8.10;93.53
76378;BME280;65200;49.500;8.654;2023-04-02T04:30:02;99918.78;;;8.05;93.35
76378;BME280;65200;49.500;8.654;2023-04-02T04:32:33;99929.81;;;8.02;94.54
76378;BME280;65200;49.500;8.654;2023-04-02T04:35:05;99925.69;;;7.99;95.07
76378;BME280;65200;49.500;8.654;2023-04-02T04:37:37;99936.06;;;7.94;94.60
76378;BME280;65200;49.500;8.654;2023-04-02T04:40:10;99941.22;;;7.96;94.43
76378;BME280;65200;49.500;8.654;2023-04-02T04:42:42;99938.94;;;7.93;94.89
76378;BME280;65200;49.500;8.654;2023-04-02T04:45:19;99940.56;;;7.94;95.04
76378;BME280;65200;49.500;8.654;2023-04-02T04:47:50;99945.53;;;7.97;95.43
76378;BME280;65200;49.500;8.654;2023-04-02T04:50:28;99950.44;;;7.93;93.96
76378;BME280;65200;49.500;8.654;2023-04-02T04:53:03;99957.41;;;7.94;95.63
76378;BME280;65200;49.500;8.654;2023-04-02T04:55:36;99958.63;;;7.92;95.10
76378;BME280;65200;49.500;8.654;2023-04-02T04:58:10;99969.94;;;7.94;94.83
76378;BME280;65200;49.500;8.654;2023-04-02T05:00:46;99963.78;;;7.93;95.60
76378;BME280;65200;49.500;8.654;2023-04-02T05:03:20;99967.81;;;7.89;95.15
76378;BME280;65200;49.500;8.654;2023-04-02T05:05:50;99977.03;;;7.87;96.17
76378;BME280;65200;49.500;8.654;2023-04-02T05:08:21;99973.50;;;7.86;96.32
76378;BME280;65200;49.500;8.654;2023-04-02T05:10:55;99977.22;;;7.85;95.46
76378;BME280;65200;49.500;8.654;2023-04-02T05:13:28;99980.69;;;7.86;96.90
76378;BME280;65200;49.500;8.654;2023-04-02T05:16:03;99986.56;;;7.81;97.20
76378;BME280;65200;49.500;8.654;2023-04-02T05:18:38;99991.72;;;7.83;96.00
76378;BME280;65200;49.500;8.654;2023-04-02T05:21:14;99988.22;;;7.82;96.27
76378;BME280;65200;49.500;8.654;2023-04-02T05:23:49;99997.25;;;7.81;96.09
76378;BME280;65200;49.500;8.654;2023-04-02T05:26:20;100005.25;;;7.81;96.49
76378;BME280;65200;49.500;8.654;2023-04-02T05:28:53;100009.28;;;7.77;96.35
76378;BME280;65200;49.500;8.654;2023-04-02T05:31:25;100003.94;;;7.77;96.89
76378;BME280;65200;49.500;8.654;2023-04-02T05:33:54;100006.59;;;7.77;97.33
76378;BME280;65200;49.500;8.654;2023-04-02T05:36:22;100010.94;;;7.78;96.45
76378;BME280;65200;49.500;8.654;2023-04-02T05:38:52;100017.94;;;7.79;97.01
76378;BME280;65200;49.500;8.654;2023-04-02T05:41:23;100013.78;;;7.77;97.41
76378;BME280;65200;49.500;8.654;2023-04-02T05:43:58;100024.75;;;7.82;96.40
76378;BME280;65200;49.500;8.654;2023-04-02T05:46:31;100028.53;;;7.87;96.45
76378;BME280;65200;49.500;8.654;2023-04-02T05:48:59;100025.84;;;7.87;95.82
76378;BME280;65200;49.500;8.654;2023-04-02T05:51:30;100034.50;;;7.89;96.79
76378;BME280;65200;49.500;8.654;2023-04-02T05:54:03;100034.50;;;7.89;96.67
76378;BME280;65200;49.500;8.654;2023-04-02T05:56:34;100041.50;;;7.90;95.87
76378;BME280;65200;49.500;8.654;2023-04-02T05:59:06;100041.69;;;7.89;96.24
76378;BME280;65200;49.500;8.654;2023-04-02T06:01:39;100044.00;;;7.92;97.03
76378;BME280;65200;49.500;8.654;2023-04-02T06:04:16;100053.19;;;7.89;95.82
76378;BME280;65200;49.500;8.654;2023-04-02T06:06:49;100061.00;;;7.91;96.42
76378;BME280;65200;49.500;8.654;2023-04-02T06:09:23;100061.47;;;7.94;97.16
76378;BME280;65200;49.500;8.654;2023-04-02T06:11:59;100055.31;;;7.94;96.67
76378;BME280;65200;49.500;8.654;2023-04-02T06:14:26;100063.13;;;7.95;96.01
76378;BME280;65200;49.500;8.654;2023-04-02T06:16:54;100065.78;;;7.95;95.46
76378;BME280;65200;49.500;8.654;2023-04-02T06:19:24;100071.44;;;8.00;95.17
76378;BME280;65200;49.500;8.654;2023-04-02T06:21:57;100074.94;;;8.01;96.27
76378;BME280;65200;49.500;8.654;2023-04-02T06:24:28;100064.91;;;8.03;94.61
76378;BME280;65200;49.500;8.654;2023-04-02T06:26:59;100085.16;;;8.12;95.34
76378;BME280;65200;49.500;8.654;2023-04-02T06:29:32;100086.19;;;8.11;95.21
76378;BME280;65200;49.500;8.654;2023-04-02T06:32:05;100092.38;;;8.11;94.45
76378;BME280;65200;49.500;8.654;2023-04-02T06:34:35;100092.50;;;8.10;94.95
76378;BME280;65200;49.500;8.654;2023-04-02T06:37:04;100092.19;;;8.13;96.05
76378;BME280;65200;49.500;8.654;2023-04-02T06:39:38;100098.63;;;8.18;95.70
76378;BME280;65200;49.500;8.654;2023-04-02T06:42:09;100107.09;;;8.22;94.92
76378;BME280;65200;49.500;8.654;2023-04-02T06:44:37;100106.25;;;8.21;94.76
76378;BME280;65200;49.500;8.654;2023-04-02T06:47:08;100106.25;;;8.21;94.95
76378;BME280;65200;49.500;8.654;2023-04-02T06:49:41;100114.78;;;8.25;94.18
76378;BME280;65200;49.500;8.654;2023-04-02T06:52:14;100122.50;;;8.34;95.52
76378;BME280;65200;49.500;8.654;2023-04-02T06:54:45;100123.66;;;8.40;95.12
76378;BME280;65200;49.500;8.654;2023-04-02T06:57:11;100134.13;;;8.42;93.83
76378;BME280;65200;49.500;8.654;2023-04-02T06:59:38;100141.78;;;8.45;94.52
76378;BME280;65200;49.500;8.654;2023-04-02T07:02:18;100141.03;;;8.51;94.36
76378;BME280;65200;49.500;8.654;2023-04-02T07:04:48;100147.41;;;8.50;92.94
76378;BME280;65200;49.500;8.654;2023-04-02T07:07:14;100151.91;;;8.49;92.94
76378;BME280;65200;49.500;8.654;2023-04-02T07:09:41;100158.09;;;8.50;94.70
76378;BME280;65200;49.500;8.654;2023-04-02T07:12:11;100160.56;;;8.51;93.71
76378;BME280;65200;49.500;8.654;2023-04-02T07:14:37;100161.03;;;8.55;93.92
76378;BME280;65200;49.500;8.654;2023-04-02T07:17:04;100165.84;;;8.59;93.77
76378;BME280;65200;49.500;8.654;2023-04-02T07:19:30;100171.47;;;8.64;93.43
76378;BME280;65200;49.500;8.654;2023-04-02T07:21:57;100169.44;;;8.66;93.78
76378;BME280;65200;49.500;8.654;2023-04-02T07:24:23;100174.44;;;8.69;92.53
76378;BME280;65200;49.500;8.654;2023-04-02T07:26:50;100182.06;;;8.72;92.29
76378;BME280;65200;49.500;8.654;2023-04-02T07:29:17;100195.78;;;8.69;92.38
76378;BME280;65200;49.500;8.654;2023-04-02T07:31:44;100195.97;;;8.68;92.39
76378;BME280;65200;49.500;8.654;2023-04-02T07:34:11;100189.97;;;8.66;92.11
76378;BME280;65200;49.500;8.654;2023-04-02T07:36:37;100199.94;;;8.72;92.19
76378;BME280;65200;49.500;8.654;2023-04-02T07:39:04;100208.59;;;8.74;92.77
76378;BME280;65200;49.500;8.654;2023-04-02T07:41:30;100210.63;;;8.72;92.13
76378;BME280;65200;49.500;8.654;2023-04-02T07:43:56;100207.78;;;8.73;91.55
76378;BME280;65200;49.500;8.654;2023-04-02T07:46:24;100216.97;;;8.71;91.56
76378;BME280;65200;49.500;8.654;2023-04-02T07:48:51;100216.81;;;8.72;93.14
76378;BME280;65200;49.500;8.654;2023-04-02T07:51:18;100216.81;;;8.72;93.27
76378;BME280;65200;49.500;8.654;2023-04-02T07:53:45;100230.63;;;8.76;93.01
76378;BME280;65200;49.500;8.654;2023-04-02T07:56:17;100219.03;;;8.83;92.49
76378;BME280;65200;49.500;8.654;2023-04-02T07:58:44;100230.56;;;8.84;91.66
76378;BME280;65200;49.500;8.654;2023-04-02T08:01:17;100235.72;;;8.85;92.42
76378;BME280;65200;49.500;8.654;2023-04-02T08:03:45;100246.88;;;8.89;92.23
76378;BME280;65200;49.500;8.654;2023-04-02T08:06:12;100248.53;;;8.90;91.40
76378;BME280;65200;49.500;8.654;2023-04-02T08:08:39;100252.88;;;8.91;92.21
76378;BME280;65200;49.500;8.654;2023-04-02T08:11:05;100260.22;;;8.89;91.85
76378;BME280;65200;49.500;8.654;2023-04-02T08:13:32;100257.19;;;8.92;91.44
76378;BME280;65200;49.500;8.654;2023-04-02T08:15:59;100258.50;;;8.96;92.48
76378;BME280;65200;49.500;8.654;2023-04-02T08:18:25;100259.88;;;9.06;92.93
76378;BME280;65200;49.500;8.654;2023-04-02T08:20:53;100263.69;;;9.12;91.67
76378;BME280;65200;49.500;8.654;2023-04-02T08:23:20;100267.09;;;9.20;91.13
76378;BME280;65200;49.500;8.654;2023-04-02T08:25:47;100271.63;;;9.34;90.65
76378;BME280;65200;49.500;8.654;2023-04-02T08:28:14;100279.25;;;9.37;91.05
76378;BME280;65200;49.500;8.654;2023-04-02T08:30:41;100272.47;;;9.35;90.58
76378;BME280;65200;49.500;8.654;2023-04-02T08:33:08;100295.88;;;9.33;91.01
76378;BME280;65200;49.500;8.654;2023-04-02T08:35:34;100292.44;;;9.39;90.51
76378;BME280;65200;49.500;8.654;2023-04-02T08:38:02;100296.72;;;9.48;90.37
76378;BME280;65200;49.500;8.654;2023-04-02T08:40:32;100291.88;;;9.58;89.30
76378;BME280;65200;49.500;8.654;2023-04-02T08:43:26;100301.50;;;9.67;90.65
76378;BME280;65200;49.500;8.654;2023-04-02T08:46:03;100298.50;;;9.91;89.01
76378;BME280;65200;49.500;8.654;2023-04-02T08:48:33;100301.94;;;9.85;89.10
76378;BME280;65200;49.500;8.654;2023-04-02T08:51:04;100305.31;;;9.94;88.53
76378;BME280;65200;49.500;8.654;2023-04-02T08:53:34;100316.06;;;10.08;90.09
76378;BME280;65200;49.500;8.654;2023-04-02T08:56:06;100314.78;;;10.25;88.87
76378;BME280;65200;49.500;8.654;2023-04-02T08:58:43;100319.47;;;10.38;88.11
76378;BME280;65200;49.500;8.654;2023-04-02T09:01:20;100331.00;;;10.38;88.20
76378;BME280;65200;49.500;8.654;2023-04-02T09:03:49;100324.06;;;10.44;87.26
76378;BME280;65200;49.500;8.654;2023-04-02T09:06:19;100324.81;;;10.38;87.71
76378;BME280;65200;49.500;8.654;2023-04-02T09:08:50;100335.00;;;10.63;86.15
76378;BME280;65200;49.500;8.654;2023-04-02T09:11:21;100343.03;;;10.84;86.69
76378;BME280;65200;49.500;8.654;2023-04-02T09:13:53;100340.63;;;10.89;84.97
76378;BME280;65200;49.500;8.654;2023-04-02T09:16:29;100340.84;;;10.73;84.52
76378;BME280;65200;49.500;8.654;2023-04-02T09:18:59;100347.88;;;10.74;84.08
76378;BME280;65200;49.500;8.654;2023-04-02T09:21:32;100351.44;;;11.02;83.13
76378;BME280;65200;49.500;8.654;2023-04-02T09:24:00;100355.44;;;11.41;81.75
76378;BME280;65200;49.500;8.654;2023-04-02T09:26:29;100360.78;;;11.34;82.90
76378;BME280;65200;49.500;8.654;2023-04-02T09:29:00;100362.28;;;11.64;81.29
76378;BME280;65200;49.500;8.654;2023-04-02T09:31:31;100365.25;;;11.82;79.52
76378;BME280;65200;49.500;8.654;2023-04-02T09:34:00;100372.09;;;11.85;81.58
76378;BME280;65200;49.500;8.654;2023-04-02T09:36:33;100380.44;;;12.03;77.53
76378;BME280;65200;49.500;8.654;2023-04-02T09:39:04;100375.13;;;11.75;78.95
76378;BME280;65200;49.500;8.654;2023-04-02T09:41:34;100380.66;;;11.67;80.53
76378;BME280;65200;49.500;8.654;2023-04-02T09:44:13;100384.88;;;11.83;80.84
76378;BME280;65200;49.500;8.654;2023-04-02T09:46:47;100388.41;;;11.83;80.30
76378;BME280;65200;49.500;8.654;2023-04-02T09:49:15;100391.44;;;12.08;79.17
76378;BME280;65200;49.500;8.654;2023-04-02T09:51:43;100385.31;;;12.27;79.42
76378;BME280;65200;49.500;8.654;2023-04-02T09:54:14;100398.91;;;12.19;79.64
76378;BME280;65200;49.500;8.654;2023-04-02T09:56:58;100401.91;;;11.96;76.46
76378;BME280;65200;49.500;8.654;2023-04-02T09:59:26;100399.22;;;11.96;80.55
76378;BME280;65200;49.500;8.654;2023-04-02T10:01:57;100398.22;;;11.70;76.29
76378;BME280;65200;49.500;8.654;2023-04-02T10:04:36;100405.19;;;11.37;79.99
76378;BME280;65200;49.500;8.654;2023-04-02T10:07:29;100411.00;;;11.19;81.19
76378;BME280;65200;49.500;8.654;2023-04-02T10:09:59;100413.03;;;11.38;79.89
76378;BME280;65200;49.500;8.654;2023-04-02T10:12:28;100418.13;;;11.54;78.19
76378;BME280;65200;49.500;8.654;2023-04-02T10:14:56;100413.13;;;11.72;78.02
76378;BME280;65200;49.500;8.654;2023-04-02T10:17:26;100422.75;;;11.94;78.18
76378;BME280;65200;49.500;8.654;2023-04-02T10:19:59;100418.59;;;12.26;77.20
76378;BME280;65200;49.500;8.654;2023-04-02T10:22:30;100419.97;;;12.15;75.38
76378;BME280;65200;49.500;8.654;2023-04-02T10:24:58;100423.91;;;12.13;75.10
76378;BME280;65200;49.500;8.654;2023-04-02T10:27:29;100426.56;;;12.06;79.05
76378;BME280;65200;49.500;8.654;2023-04-02T10:30:08;100428.56;;;11.98;77.90
76378;BME280;65200;49.500;8.654;2023-04-02T10:32:40;100437.25;;;12.00;76.42
76378;BME280;65200;49.500;8.654;2023-04-02T10:35:15;100445.44;;;11.85;75.95
76378;BME280;65200;49.500;8.654;2023-04-02T10:37:57;100433.91;;;11.91;77.13
76378;BME280;65200;49.500;8.654;2023-04-02T10:40:30;100442.09;;;11.83;77.99
76378;BME280;65200;49.500;8.654;2023-04-02T10:43:20;100450.56;;;11.80;78.04
76378;BME280;65200;49.500;8.654;2023-04-02T10:45:55;100447.03;;;11.80;77.79
76378;BME280;65200;49.500;8.654;2023-04-02T10:48:31;100448.84;;;11.52;80.83
76378;BME280;65200;49.500;8.654;2023-04-02T10:51:04;100453.97;;;11.04;84.42
76378;BME280;65200;49.500;8.654;2023-04-02T10:53:36;100467.50;;;10.61;86.19
76378;BME280;65200;49.500;8.654;2023-04-02T10:56:11;100466.63;;;10.39;86.55
76378;BME280;65200;49.500;8.654;2023-04-02T10:58:43;100473.66;;;10.11;88.14
76378;BME280;65200;49.500;8.654;2023-04-02T11:01:14;100473.25;;;9.85;90.55
76378;BME280;65200;49.500;8.654;2023-04-02T11:03:45;100483.53;;;9.59;92.11
76378;BME280;65200;49.500;8.654;2023-04-02T11:06:17;100484.13;;;9.46;92.73
76378;BME280;65200;49.500;8.654;2023-04-02T11:08:46;100486.41;;;9.35;94.34
76378;BME280;65200;49.500;8.654;2023-04-02T11:11:15;100494.50;;;9.27;95.25
76378;BME280;65200;49.500;8.654;2023-04-02T11:13:50;100496.81;;;9.30;94.49
76378;BME280;65200;49.500;8.654;2023-04-02T11:16:17;100502.66;;;9.33;94.88
76378;BME280;65200;49.500;8.654;2023-04-02T11:19:07;100502.75;;;9.40;95.05
76378;BME280;65200;49.500;8.654;2023-04-02T11:21:38;100507.09;;;9.41;93.29
76378;BME280;65200;49.500;8.654;2023-04-02T11:24:22;100510.44;;;9.43;93.64
76378;BME280;65200;49.500;8.654;2023-04-02T11:26:50;100514.31;;;9.55;94.46
76378;BME280;65200;49.500;8.654;2023-04-02T11:29:24;100523.47;;;9.60;94.60
76378;BME280;65200;49.500;8.654;2023-04-02T11:32:26;100522.50;;;9.76;94.60
76378;BME280;65200;49.500;8.654;2023-04-02T11:34:57;100530.81;;;9.81;95.26
76378;BME280;65200;49.500;8.654;2023-04-02T11:37:34;100535.25;;;9.74;93.59
76378;BME280;65200;49.500;8.654;2023-04-02T11:40:35;100526.84;;;9.77;95.02
76378;BME280;65200;49.500;8.654;2023-04-02T11:43:48;100538.66;;;9.83;94.71
76378;BME280;65200;49.500;8.654;2023-04-02T11:46:40;100544.97;;;9.90;94.91
76378;BME280;65200;49.500;8.654;2023-04-02T11:49:32;100555.31;;;9.93;94.02
76378;BME280;65200;49.500;8.654;2023-04-02T11:51:59;100547.16;;;9.86;94.85
76378;BME280;65200;49.500;8.654;2023-04-02T11:54:35;100563.81;;;9.96;94.80
76378;BME280;65200;49.500;8.654;2023-04-02T11:57:09;100563.75;;;10.04;94.71
76378;BME280;65200;49.500;8.654;2023-04-02T11:59:47;100561.00;;;10.12;90.55
76378;BME280;65200;49.500;8.654;2023-04-02T12:02:20;100567.97;;;9.99;91.06
76378;BME280;65200;49.500;8.654;2023-04-02T12:05:09;100570.09;;;9.89;91.46
76378;BME280;65200;49.500;8.654;2023-04-02T12:07:54;100574.63;;;10.03;91.26
76378;BME280;65200;49.500;8.654;2023-04-02T12:10:23;100577.25;;;10.11;90.51
76378;BME280;65200;49.500;8.654;2023-04-02T12:12:54;100583.13;;;10.29;92.05
76378;BME280;65200;49.500;8.654;2023-04-02T12:15:36;100587.81;;;10.27;89.04
76378;BME280;65200;49.500;8.654;2023-04-02T12:18:12;100586.81;;;10.05;88.98
76378;BME280;65200;49.500;8.654;2023-04-02T12:20:40;100589.03;;;10.02;91.75
76378;BME280;65200;49.500;8.654;2023-04-02T12:23:17;100590.50;;;10.04;88.09
76378;BME280;65200;49.500;8.654;2023-04-02T12:25:52;100600.72;;;10.09;89.92
76378;BME280;65200;49.500;8.654;2023-04-02T12:28:20;100601.22;;;10.04;88.46
76378;BME280;65200;49.500;8.654;2023-04-02T12:30:49;100608.25;;;9.83;89.54
76378;BME280;65200;49.500;8.654;2023-04-02T12:33:26;100610.63;;;9.55;90.12
76378;BME280;65200;49.500;8.654;2023-04-02T12:35:56;100621.09;;;9.42;90.22
76378;BME280;65200;49.500;8.654;2023-04-02T12:38:24;100614.38;;;9.46;89.56
76378;BME280;65200;49.500;8.654;2023-04-02T12:40:52;100633.78;;;9.48;89.90
76378;BME280;65200;49.500;8.654;2023-04-02T12:43:25;100633.13;;;9.46;91.12
76378;BME280;65200;49.500;8.654;2023-04-02T12:45:54;100635.75;;;9.54;89.76
76378;BME280;65200;49.500;8.654;2023-04-02T12:48:22;100638.06;;;9.57;90.06
76378;BME280;65200;49.500;8.654;2023-04-02T12:50:49;100646.94;;;9.57;88.22
76378;BME280;65200;49.500;8.654;2023-04-02T12:53:19;100649.91;;;9.62;87.69
76378;BME280;65200;49.500;8.654;2023-04-02T12:55:47;100654.38;;;9.70;88.04
76378;BME280;65200;49.500;8.654;2023-04-02T12:58:24;100650.03;;;9.69;87.23
76378;BME280;65200;49.500;8.654;2023-04-02T13:01:02;100652.53;;;9.70;86.27
76378;BME280;65200;49.500;8.654;2023-04-02T13:03:33;100653.41;;;9.63;84.78
76378;BME280;65200;49.500;8.654;2023-04-02T13:06:00;100651.78;;;9.54;85.60
76378;BME280;65200;49.500;8.654;2023-04-02T13:08:28;100660.66;;;9.54;86.39
76378;BME280;65200;49.500;8.654;2023-04-02T13:10:56;100667.56;;;9.71;86.47
76378;BME280;65200;49.500;8.654;2023-04-02T13:13:26;100669.06;;;9.74;85.11
76378;BME280;65200;49.500;8.654;2023-04-02T13:16:04;100672.94;;;9.94;84.05
76378;BME280;65200;49.500;8.654;2023-04-02T13:18:32;100661.78;;;10.05;83.95
76378;BME280;65200;49.500;8.654;2023-04-02T13:21:00;100670.16;;;10.10;82.21
76378;BME280;65200;49.500;8.654;2023-04-02T13:23:34;100668.13;;;10.12;80.71
76378;BME280;65200;49.500;8.654;2023-04-02T13:26:10;100669.78;;;10.13;79.61
76378;BME280;65200;49.500;8.654;2023-04-02T13:28:37;100674.81;;;10.16;80.25